sensor_id;sensor_type;location;lat;lon;timestamp;temperature;humidity
52889;DHT22;41413;52.770;6.892;2023-03-25T00:02:22;9.70;99.90
52889;DHT22;41413;52.770;6.892;2023-03-25T00:04:51;9.60;99.90
52889;DHT22;41413;52.770;6.892;2023-03-25T00:07:19;9.70;99.90
52889;DHT22;41413;52.770;6.892;2023-03-25T00:09:46;9.70;99.90
52889;DHT22;41413;52.770;6.892;2023-03-25T00:12:14;9.80;99.90
52889;DHT22;41413;52.770;6.892;2023-03-25T00:14:45;9.80;99.90
52889;DHT22;41413;52.770;6.892;2023-03-25T00:17:21;9.70;99.90
52889;DHT22;41413;52.770;6.892;2023-03-25T00:19:48;9.70;99.90
52889;DHT22;41413;52.770;6.892;2023-03-25T00:22:18;9.70;99.90
52889;DHT22;41413;52.770;6.892;2023-03-25T00:24:44;9.60;99.90
52889;DHT22;41413;52.770;6.892;2023-03-25T00:27:11;9.60;99.90
52889;DHT22;41413;52.770;6.892;2023-03-25T00:29:40;9.60;99.90
52889;DHT22;41413;52.770;6.892;2023-03-25T00:32:11;9.60;99.90
52889;DHT22;41413;52.770;6.892;2023-03-25T00:34:38;9.60;99.90
52889;DHT22;41413;52.770;6.892;2023-03-25T00:37:14;9.60;99.90
52889;DHT22;41413;52.770;6.892;2023-03-25T00:39:47;9.50;99.90
52889;DHT22;41413;52.770;6.892;2023-03-25T00:42:15;9.50;99.90
52889;DHT22;41413;52.770;6.892;2023-03-25T00:44:42;9.50;99.90
52889;DHT22;41413;52.770;6.892;2023-03-25T00:47:09;9.50;99.90
52889;DHT22;41413;52.770;6.892;2023-03-25T00:49:37;9.50;99.90
52889;DHT22;41413;52.770;6.892;2023-03-25T00:52:04;9.50;99.90
52889;DHT22;41413;52.770;6.892;2023-03-25T00:54:31;9.50;99.90
52889;DHT22;41413;52.770;6.892;2023-03-25T00:56:59;9.50;99.90
52889;DHT22;41413;52.770;6.892;2023-03-25T00:59:26;9.50;99.90
52889;DHT22;41413;52.770;6.892;2023-03-25T01:01:53;9.50;99.90
52889;DHT22;41413;52.770;6.892;2023-03-25T01:04:21;9.50;99.90
52889;DHT22;41413;52.770;6.892;2023-03-25T01:06:48;9.40;99.90
52889;DHT22;41413;52.770;6.892;2023-03-25T01:09:18;9.40;99.90
52889;DHT22;41413;52.770;6.892;2023-03-25T01:11:46;9.50;99.90
52889;DHT22;41413;52.770;6.892;2023-03-25T01:14:17;9.40;99.90
52889;DHT22;41413;52.770;6.892;2023-03-25T01:16:44;9.40;99.90
52889;DHT22;41413;52.770;6.892;2023-03-25T01:19:12;9.40;99.90
52889;DHT22;41413;52.770;6.892;2023-03-25T01:21:39;9.30;99.90
52889;DHT22;41413;52.770;6.892;2023-03-25T01:24:07;9.40;99.90
52889;DHT22;41413;52.770;6.892;2023-03-25T01:26:34;9.40;99.90
52889;DHT22;41413;52.770;6.892;2023-03-25T01:29:01;9.30;99.90
52889;DHT22;41413;52.770;6.892;2023-03-25T01:31:28;9.30;99.90
52889;DHT22;41413;52.770;6.892;2023-03-25T01:33:56;9.30;99.90
52889;DHT22;41413;52.770;6.892;2023-03-25T01:36:25;9.30;99.90
52889;DHT22;41413;52.770;6.892;2023-03-25T01:38:56;9.30;99.90
52889;DHT22;41413;52.770;6.892;2023-03-25T01:41:25;9.30;99.90
52889;DHT22;41413;52.770;6.892;2023-03-25T01:44:05;9.40;99.90
52889;DHT22;41413;52.770;6.892;2023-03-25T01:46:34;9.30;99.90
52889;DHT22;41413;52.770;6.892;2023-03-25T01:49:04;9.30;99.90
52889;DHT22;41413;52.770;6.892;2023-03-25T01:51:37;9.30;99.90
52889;DHT22;41413;52.770;6.892;2023-03-25T01:54:06;9.40;99.90
52889;DHT22;41413;52.770;6.892;2023-03-25T01:56:35;9.40;99.90
52889;DHT22;41413;52.770;6.892;2023-03-25T01:59:05;9.30;99.90
52889;DHT22;41413;52.770;6.892;2023-03-25T02:01:32;9.20;99.90
52889;DHT22;41413;52.770;6.892;2023-03-25T02:04:00;9.10;99.90
52889;DHT22;41413;52.770;6.892;2023-03-25T02:06:43;9.10;99.90
52889;DHT22;41413;52.770;6.892;2023-03-25T02:09:14;9.10;99.90
52889;DHT22;41413;52.770;6.892;2023-03-25T02:11:41;9.00;99.90
52889;DHT22;41413;52.770;6.892;2023-03-25T02:14:16;8.90;99.90
52889;DHT22;41413;52.770;6.892;2023-03-25T02:20:14;8.90;99.90
52889;DHT22;41413;52.770;6.892;2023-03-25T02:26:26;8.80;99.90
52889;DHT22;41413;52.770;6.892;2023-03-25T02:29:03;8.70;99.90
52889;DHT22;41413;52.770;6.892;2023-03-25T02:43:25;8.40;99.90
52889;DHT22;41413;52.770;6.892;2023-03-25T02:45:58;8.40;99.90
52889;DHT22;41413;52.770;6.892;2023-03-25T02:48:43;8.40;99.90
52889;DHT22;41413;52.770;6.892;2023-03-25T02:51:21;8.40;99.90
52889;DHT22;41413;52.770;6.892;2023-03-25T02:53:50;8.40;99.90
52889;DHT22;41413;52.770;6.892;2023-03-25T02:56:20;8.40;99.90
52889;DHT22;41413;52.770;6.892;2023-03-25T02:58:50;8.40;99.90
52889;DHT22;41413;52.770;6.892;2023-03-25T03:01:22;8.40;99.90
52889;DHT22;41413;52.770;6.892;2023-03-25T03:03:53;8.40;99.90
52889;DHT22;41413;52.770;6.892;2023-03-25T03:06:22;8.40;99.90
52889;DHT22;41413;52.770;6.892;2023-03-25T03:11:30;8.40;99.90
52889;DHT22;41413;52.770;6.892;2023-03-25T03:19:39;8.50;99.90
52889;DHT22;41413;52.770;6.892;2023-03-25T03:35:56;8.50;99.90
52889;DHT22;41413;52.770;6.892;2023-03-25T03:38:28;8.50;99.90
52889;DHT22;41413;52.770;6.892;2023-03-25T03:41:03;8.50;99.90
52889;DHT22;41413;52.770;6.892;2023-03-25T03:43:44;8.50;99.90
52889;DHT22;41413;52.770;6.892;2023-03-25T03:46:35;8.50;99.90
52889;DHT22;41413;52.770;6.892;2023-03-25T03:49:08;8.50;99.90
52889;DHT22;41413;52.770;6.892;2023-03-25T03:51:39;8.50;99.90
52889;DHT22;41413;52.770;6.892;2023-03-25T03:54:21;8.50;99.90
52889;DHT22;41413;52.770;6.892;2023-03-25T04:02:40;8.50;99.90
52889;DHT22;41413;52.770;6.892;2023-03-25T04:05:10;8.50;99.90
52889;DHT22;41413;52.770;6.892;2023-03-25T04:07:50;8.50;99.90
52889;DHT22;41413;52.770;6.892;2023-03-25T04:12:52;8.50;99.90
52889;DHT22;41413;52.770;6.892;2023-03-25T04:15:20;8.50;99.90
52889;DHT22;41413;52.770;6.892;2023-03-25T04:17:47;8.40;99.90
52889;DHT22;41413;52.770;6.892;2023-03-25T04:20:18;8.50;99.90
52889;DHT22;41413;52.770;6.892;2023-03-25T04:22:50;8.40;99.90
52889;DHT22;41413;52.770;6.892;2023-03-25T04:25:18;8.40;99.90
52889;DHT22;41413;52.770;6.892;2023-03-25T04:27:47;8.40;99.90
52889;DHT22;41413;52.770;6.892;2023-03-25T04:30:19;8.40;99.90
52889;DHT22;41413;52.770;6.892;2023-03-25T04:32:47;8.40;99.90
52889;DHT22;41413;52.770;6.892;2023-03-25T04:35:15;8.40;99.90
52889;DHT22;41413;52.770;6.892;2023-03-25T04:37:47;8.30;99.90
52889;DHT22;41413;52.770;6.892;2023-03-25T04:40:20;8.40;99.90
52889;DHT22;41413;52.770;6.892;2023-03-25T04:42:46;8.40;99.90
52889;DHT22;41413;52.770;6.892;2023-03-25T04:45:14;8.40;99.90
52889;DHT22;41413;52.770;6.892;2023-03-25T04:47:46;8.40;99.90
52889;DHT22;41413;52.770;6.892;2023-03-25T04:50:24;8.40;99.90
52889;DHT22;41413;52.770;6.892;2023-03-25T04:52:51;8.30;99.90
52889;DHT22;41413;52.770;6.892;2023-03-25T04:55:20;8.30;99.90
52889;DHT22;41413;52.770;6.892;2023-03-25T04:57:48;8.30;99.90
52889;DHT22;41413;52.770;6.892;2023-03-25T05:00:20;8.20;99.90
52889;DHT22;41413;52.770;6.892;2023-03-25T05:02:50;8.20;99.90
52889;DHT22;41413;52.770;6.892;2023-03-25T05:05:19;8.20;99.90
52889;DHT22;41413;52.770;6.892;2023-03-25T05:07:47;8.10;99.90
52889;DHT22;41413;52.770;6.892;2023-03-25T05:10:16;8.10;99.90
52889;DHT22;41413;52.770;6.892;2023-03-25T05:12:43;8.10;99.90
52889;DHT22;41413;52.770;6.892;2023-03-25T05:15:11;8.10;99.90
52889;DHT22;41413;52.770;6.892;2023-03-25T05:17:39;8.10;99.90
52889;DHT22;41413;52.770;6.892;2023-03-25T05:20:06;8.10;99.90
52889;DHT22;41413;52.770;6.892;2023-03-25T05:22:37;8.20;99.90
52889;DHT22;41413;52.770;6.892;2023-03-25T05:25:05;8.10;99.90
52889;DHT22;41413;52.770;6.892;2023-03-25T05:27:33;8.10;99.90
52889;DHT22;41413;52.770;6.892;2023-03-25T05:30:00;8.10;99.90
52889;DHT22;41413;52.770;6.892;2023-03-25T05:32:28;8.10;99.90
52889;DHT22;41413;52.770;6.892;2023-03-25T05:35:02;8.10;99.90
52889;DHT22;41413;52.770;6.892;2023-03-25T05:37:29;8.10;99.90
52889;DHT22;41413;52.770;6.892;2023-03-25T05:39:57;8.10;99.90
52889;DHT22;41413;52.770;6.892;2023-03-25T05:42:23;8.20;99.90
52889;DHT22;41413;52.770;6.892;2023-03-25T05:44:53;8.10;99.90
52889;DHT22;41413;52.770;6.892;2023-03-25T05:47:22;8.10;99.90
52889;DHT22;41413;52.770;6.892;2023-03-25T05:49:51;8.00;99.90
52889;DHT22;41413;52.770;6.892;2023-03-25T05:52:19;8.10;99.90
52889;DHT22;41413;52.770;6.892;2023-03-25T05:54:49;7.90;99.90
52889;DHT22;41413;52.770;6.892;2023-03-25T05:57:17;8.10;99.90
52889;DHT22;41413;52.770;6.892;2023-03-25T05:59:44;8.10;99.90
52889;DHT22;41413;52.770;6.892;2023-03-25T06:02:14;8.10;99.90
52889;DHT22;41413;52.770;6.892;2023-03-25T06:04:41;8.10;99.90
52889;DHT22;41413;52.770;6.892;2023-03-25T06:07:11;8.10;99.90
52889;DHT22;41413;52.770;6.892;2023-03-25T06:09:46;8.10;99.90
52889;DHT22;41413;52.770;6.892;2023-03-25T06:12:23;8.20;99.90
52889;DHT22;41413;52.770;6.892;2023-03-25T06:14:53;8.20;99.90
52889;DHT22;41413;52.770;6.892;2023-03-25T06:17:21;8.20;99.90
52889;DHT22;41413;52.770;6.892;2023-03-25T06:19:49;8.20;99.90
52889;DHT22;41413;52.770;6.892;2023-03-25T06:22:16;8.20;99.90
52889;DHT22;41413;52.770;6.892;2023-03-25T06:24:45;8.20;99.90
52889;DHT22;41413;52.770;6.892;2023-03-25T06:27:15;8.10;99.90
52889;DHT22;41413;52.770;6.892;2023-03-25T06:29:44;8.10;99.90
52889;DHT22;41413;52.770;6.892;2023-03-25T06:32:12;8.00;99.90
52889;DHT22;41413;52.770;6.892;2023-03-25T06:34:39;8.00;99.90
52889;DHT22;41413;52.770;6.892;2023-03-25T06:37:09;8.00;99.90
52889;DHT22;41413;52.770;6.892;2023-03-25T06:39:36;8.00;99.90
52889;DHT22;41413;52.770;6.892;2023-03-25T06:42:04;8.00;99.90
52889;DHT22;41413;52.770;6.892;2023-03-25T06:44:31;8.00;99.90
52889;DHT22;41413;52.770;6.892;2023-03-25T06:46:59;7.90;99.90
52889;DHT22;41413;52.770;6.892;2023-03-25T06:49:27;8.00;99.90
52889;DHT22;41413;52.770;6.892;2023-03-25T06:51:54;7.90;99.90
52889;DHT22;41413;52.770;6.892;2023-03-25T06:54:21;7.90;99.90
52889;DHT22;41413;52.770;6.892;2023-03-25T06:56:48;7.90;99.90
52889;DHT22;41413;52.770;6.892;2023-03-25T06:59:15;7.90;99.90
52889;DHT22;41413;52.770;6.892;2023-03-25T07:01:42;7.90;99.90
52889;DHT22;41413;52.770;6.892;2023-03-25T07:04:09;8.00;99.90
52889;DHT22;41413;52.770;6.892;2023-03-25T07:06:36;8.20;99.90
52889;DHT22;41413;52.770;6.892;2023-03-25T07:09:03;8.50;99.90
52889;DHT22;41413;52.770;6.892;2023-03-25T07:11:31;8.90;99.90
52889;DHT22;41413;52.770;6.892;2023-03-25T07:13:59;9.10;99.90
52889;DHT22;41413;52.770;6.892;2023-03-25T07:16:27;9.40;99.90
52889;DHT22;41413;52.770;6.892;2023-03-25T07:18:54;9.40;99.90
52889;DHT22;41413;52.770;6.892;2023-03-25T07:21:22;9.70;99.90
52889;DHT22;41413;52.770;6.892;2023-03-25T07:23:49;9.90;99.90
52889;DHT22;41413;52.770;6.892;2023-03-25T07:26:16;10.00;99.90
52889;DHT22;41413;52.770;6.892;2023-03-25T07:28:43;10.20;99.90
52889;DHT22;41413;52.770;6.892;2023-03-25T07:31:13;10.50;99.90
52889;DHT22;41413;52.770;6.892;2023-03-25T07:33:40;10.60;99.90
52889;DHT22;41413;52.770;6.892;2023-03-25T07:36:09;10.50;99.90
52889;DHT22;41413;52.770;6.892;2023-03-25T07:38:36;10.20;99.90
52889;DHT22;41413;52.770;6.892;2023-03-25T07:41:09;10.10;99.90
52889;DHT22;41413;52.770;6.892;2023-03-25T07:43:36;9.80;99.90
52889;DHT22;41413;52.770;6.892;2023-03-25T07:46:04;9.60;99.90
52889;DHT22;41413;52.770;6.892;2023-03-25T07:48:31;9.40;99.90
52889;DHT22;41413;52.770;6.892;2023-03-25T07:50:58;9.20;99.90
52889;DHT22;41413;52.770;6.892;2023-03-25T07:53:24;9.20;99.90
52889;DHT22;41413;52.770;6.892;2023-03-25T07:55:51;9.10;99.90
52889;DHT22;41413;52.770;6.892;2023-03-25T07:58:19;9.00;99.90
52889;DHT22;41413;52.770;6.892;2023-03-25T08:00:46;8.80;99.90
52889;DHT22;41413;52.770;6.892;2023-03-25T08:03:13;9.10;99.90
52889;DHT22;41413;52.770;6.892;2023-03-25T08:05:47;8.80;99.90
52889;DHT22;41413;52.770;6.892;2023-03-25T08:08:14;8.80;99.90
52889;DHT22;41413;52.770;6.892;2023-03-25T08:10:42;8.80;99.90
52889;DHT22;41413;52.770;6.892;2023-03-25T08:13:10;8.80;99.90
52889;DHT22;41413;52.770;6.892;2023-03-25T08:15:38;8.80;99.90
52889;DHT22;41413;52.770;6.892;2023-03-25T08:18:06;8.80;99.90
52889;DHT22;41413;52.770;6.892;2023-03-25T08:20:34;9.10;99.90
52889;DHT22;41413;52.770;6.892;2023-03-25T08:23:01;9.70;99.90
52889;DHT22;41413;52.770;6.892;2023-03-25T08:25:29;9.90;99.90
52889;DHT22;41413;52.770;6.892;2023-03-25T08:27:57;9.80;99.90
52889;DHT22;41413;52.770;6.892;2023-03-25T08:30:24;9.70;99.90
52889;DHT22;41413;52.770;6.892;2023-03-25T08:32:51;9.90;99.90
52889;DHT22;41413;52.770;6.892;2023-03-25T08:35:23;10.50;99.90
52889;DHT22;41413;52.770;6.892;2023-03-25T08:37:50;10.60;99.90
52889;DHT22;41413;52.770;6.892;2023-03-25T08:40:17;10.40;99.90
52889;DHT22;41413;52.770;6.892;2023-03-25T08:42:45;10.20;99.90
52889;DHT22;41413;52.770;6.892;2023-03-25T08:45:12;9.90;99.90
52889;DHT22;41413;52.770;6.892;2023-03-25T08:47:42;9.60;99.90
52889;DHT22;41413;52.770;6.892;2023-03-25T08:50:09;9.60;99.90
52889;DHT22;41413;52.770;6.892;2023-03-25T08:52:36;9.50;99.90
52889;DHT22;41413;52.770;6.892;2023-03-25T08:55:04;9.40;99.90
52889;DHT22;41413;52.770;6.892;2023-03-25T08:57:36;9.30;99.90
52889;DHT22;41413;52.770;6.892;2023-03-25T09:00:04;9.30;99.90
52889;DHT22;41413;52.770;6.892;2023-03-25T09:02:51;9.30;99.90
52889;DHT22;41413;52.770;6.892;2023-03-25T09:05:18;9.20;99.90
52889;DHT22;41413;52.770;6.892;2023-03-25T09:07:45;9.30;99.90
52889;DHT22;41413;52.770;6.892;2023-03-25T09:10:12;9.40;99.90
52889;DHT22;41413;52.770;6.892;2023-03-25T09:12:40;9.30;99.90
52889;DHT22;41413;52.770;6.892;2023-03-25T09:15:07;9.30;99.90
52889;DHT22;41413;52.770;6.892;2023-03-25T09:17:34;9.80;99.90
52889;DHT22;41413;52.770;6.892;2023-03-25T09:20:02;9.90;99.90
52889;DHT22;41413;52.770;6.892;2023-03-25T09:22:29;9.90;99.90
52889;DHT22;41413;52.770;6.892;2023-03-25T09:24:56;9.90;99.90
52889;DHT22;41413;52.770;6.892;2023-03-25T09:27:23;9.80;99.90
52889;DHT22;41413;52.770;6.892;2023-03-25T09:29:50;9.80;99.90
52889;DHT22;41413;52.770;6.892;2023-03-25T09:32:17;9.60;99.90
52889;DHT22;41413;52.770;6.892;2023-03-25T09:34:44;9.30;99.90
52889;DHT22;41413;52.770;6.892;2023-03-25T09:37:11;9.20;99.90
52889;DHT22;41413;52.770;6.892;2023-03-25T09:39:38;9.20;99.90
52889;DHT22;41413;52.770;6.892;2023-03-25T09:47:39;10.90;99.90
52889;DHT22;41413;52.770;6.892;2023-03-25T09:50:11;11.50;99.90
52889;DHT22;41413;52.770;6.892;2023-03-25T09:53:02;11.50;99.90
52889;DHT22;41413;52.770;6.892;2023-03-25T09:55:34;11.50;99.90
52889;DHT22;41413;52.770;6.892;2023-03-25T09:58:24;10.80;99.90
52889;DHT22;41413;52.770;6.892;2023-03-25T10:04:03;10.30;99.90
52889;DHT22;41413;52.770;6.892;2023-03-25T10:07:01;10.10;99.90
52889;DHT22;41413;52.770;6.892;2023-03-25T10:14:58;10.40;99.90
52889;DHT22;41413;52.770;6.892;2023-03-25T10:17:34;11.00;99.90
52889;DHT22;41413;52.770;6.892;2023-03-25T10:20:22;11.50;99.90
52889;DHT22;41413;52.770;6.892;2023-03-25T10:23:29;11.00;99.90
52889;DHT22;41413;52.770;6.892;2023-03-25T10:26:07;10.80;99.90
52889;DHT22;41413;52.770;6.892;2023-03-25T10:28:38;10.90;99.90
52889;DHT22;41413;52.770;6.892;2023-03-25T10:31:14;10.20;99.90
52889;DHT22;41413;52.770;6.892;2023-03-25T10:33:53;10.00;99.90
52889;DHT22;41413;52.770;6.892;2023-03-25T10:36:33;9.90;99.90
52889;DHT22;41413;52.770;6.892;2023-03-25T10:39:04;9.70;99.90
52889;DHT22;41413;52.770;6.892;2023-03-25T10:41:36;9.80;99.90
52889;DHT22;41413;52.770;6.892;2023-03-25T10:44:08;9.60;99.90
52889;DHT22;41413;52.770;6.892;2023-03-25T10:46:39;9.60;99.90
52889;DHT22;41413;52.770;6.892;2023-03-25T10:49:19;9.60;99.90
52889;DHT22;41413;52.770;6.892;2023-03-25T10:51:49;9.70;99.90
52889;DHT22;41413;52.770;6.892;2023-03-25T10:54:20;9.60;99.90
52889;DHT22;41413;52.770;6.892;2023-03-25T10:56:51;9.60;99.90
52889;DHT22;41413;52.770;6.892;2023-03-25T10:59:22;9.60;99.90
52889;DHT22;41413;52.770;6.892;2023-03-25T11:01:51;9.60;99.90
52889;DHT22;41413;52.770;6.892;2023-03-25T11:04:20;9.90;99.90
52889;DHT22;41413;52.770;6.892;2023-03-25T11:06:53;10.00;99.90
52889;DHT22;41413;52.770;6.892;2023-03-25T11:09:26;10.20;99.90
52889;DHT22;41413;52.770;6.892;2023-03-25T11:11:59;10.40;99.90
52889;DHT22;41413;52.770;6.892;2023-03-25T11:14:28;10.50;99.90
52889;DHT22;41413;52.770;6.892;2023-03-25T11:16:58;10.60;99.90
52889;DHT22;41413;52.770;6.892;2023-03-25T11:19:41;10.70;99.90
52889;DHT22;41413;52.770;6.892;2023-03-25T11:22:21;10.70;99.90
52889;DHT22;41413;52.770;6.892;2023-03-25T11:24:53;10.60;99.90
52889;DHT22;41413;52.770;6.892;2023-03-25T11:27:25;10.50;99.90
52889;DHT22;41413;52.770;6.892;2023-03-25T11:29:56;10.10;99.90
52889;DHT22;41413;52.770;6.892;2023-03-25T11:32:35;10.10;99.90
52889;DHT22;41413;52.770;6.892;2023-03-25T11:35:16;10.10;99.90
52889;DHT22;41413;52.770;6.892;2023-03-25T11:37:45;10.40;99.90
52889;DHT22;41413;52.770;6.892;2023-03-25T11:40:15;10.80;99.90
52889;DHT22;41413;52.770;6.892;2023-03-25T11:42:51;11.20;99.90
52889;DHT22;41413;52.770;6.892;2023-03-25T11:47:46;11.60;99.90
52889;DHT22;41413;52.770;6.892;2023-03-25T11:50:25;11.60;99.90
52889;DHT22;41413;52.770;6.892;2023-03-25T11:52:56;11.70;99.90
52889;DHT22;41413;52.770;6.892;2023-03-25T11:55:35;11.70;99.90
52889;DHT22;41413;52.770;6.892;2023-03-25T11:58:02;11.80;99.90
52889;DHT22;41413;52.770;6.892;2023-03-25T12:08:57;11.20;99.90
52889;DHT22;41413;52.770;6.892;2023-03-25T12:11:35;11.20;99.90
52889;DHT22;41413;52.770;6.892;2023-03-25T12:15:10;11.40;99.90
52889;DHT22;41413;52.770;6.892;2023-03-25T12:28:29;12.00;99.90
52889;DHT22;41413;52.770;6.892;2023-03-25T12:31:11;11.80;99.90
52889;DHT22;41413;52.770;6.892;2023-03-25T12:33:58;11.80;99.90
52889;DHT22;41413;52.770;6.892;2023-03-25T12:42:29;11.60;99.90
52889;DHT22;41413;52.770;6.892;2023-03-25T13:02:08;11.70;99.90
52889;DHT22;41413;52.770;6.892;2023-03-25T13:04:56;11.50;99.90
52889;DHT22;41413;52.770;6.892;2023-03-25T13:07:39;11.60;99.90
52889;DHT22;41413;52.770;6.892;2023-03-25T13:10:20;11.40;99.90
52889;DHT22;41413;52.770;6.892;2023-03-25T13:12:50;11.50;99.90
52889;DHT22;41413;52.770;6.892;2023-03-25T13:15:23;11.60;99.90
52889;DHT22;41413;52.770;6.892;2023-03-25T13:18:09;11.60;99.90
52889;DHT22;41413;52.770;6.892;2023-03-25T13:20:42;11.80;99.90
52889;DHT22;41413;52.770;6.892;2023-03-25T13:23:14;12.10;99.90
52889;DHT22;41413;52.770;6.892;2023-03-25T13:25:55;12.30;99.90
52889;DHT22;41413;52.770;6.892;2023-03-25T13:28:36;12.40;99.90
52889;DHT22;41413;52.770;6.892;2023-03-25T13:31:11;12.30;99.90
52889;DHT22;41413;52.770;6.892;2023-03-25T13:33:46;12.30;99.90
52889;DHT22;41413;52.770;6.892;2023-03-25T13:36:25;12.30;99.90
52889;DHT22;41413;52.770;6.892;2023-03-25T13:39:05;12.30;99.90
52889;DHT22;41413;52.770;6.892;2023-03-25T13:41:42;12.30;99.90
52889;DHT22;41413;52.770;6.892;2023-03-25T13:46:57;12.50;99.90
52889;DHT22;41413;52.770;6.892;2023-03-25T13:49:31;12.40;99.90
52889;DHT22;41413;52.770;6.892;2023-03-25T13:52:01;12.30;99.90
52889;DHT22;41413;52.770;6.892;2023-03-25T13:54:36;12.20;99.90
52889;DHT22;41413;52.770;6.892;2023-03-25T14:02:40;12.60;99.90
52889;DHT22;41413;52.770;6.892;2023-03-25T14:05:27;12.70;99.90
52889;DHT22;41413;52.770;6.892;2023-03-25T14:13:44;12.40;99.90
52889;DHT22;41413;52.770;6.892;2023-03-25T14:16:18;12.20;99.90
52889;DHT22;41413;52.770;6.892;2023-03-25T14:18:48;12.30;99.90
52889;DHT22;41413;52.770;6.892;2023-03-25T14:24:13;12.30;99.90
52889;DHT22;41413;52.770;6.892;2023-03-25T14:26:49;11.90;99.90
52889;DHT22;41413;52.770;6.892;2023-03-25T14:29:52;12.00;99.90
52889;DHT22;41413;52.770;6.892;2023-03-25T14:34:47;11.90;99.90
52889;DHT22;41413;52.770;6.892;2023-03-25T14:39:52;11.80;99.90
52889;DHT22;41413;52.770;6.892;2023-03-25T14:42:24;11.80;99.90
52889;DHT22;41413;52.770;6.892;2023-03-25T14:47:58;12.00;99.90
52889;DHT22;41413;52.770;6.892;2023-03-25T14:53:02;11.80;99.90
52889;DHT22;41413;52.770;6.892;2023-03-25T14:55:39;11.70;99.90
52889;DHT22;41413;52.770;6.892;2023-03-25T14:58:24;11.40;99.90
52889;DHT22;41413;52.770;6.892;2023-03-25T15:01:01;11.40;99.90
52889;DHT22;41413;52.770;6.892;2023-03-25T15:03:35;10.80;99.90
52889;DHT22;41413;52.770;6.892;2023-03-25T15:06:03;10.70;99.90
52889;DHT22;41413;52.770;6.892;2023-03-25T15:08:38;10.30;99.90
52889;DHT22;41413;52.770;6.892;2023-03-25T15:11:14;10.10;99.90
52889;DHT22;41413;52.770;6.892;2023-03-25T15:13:47;10.10;99.90
52889;DHT22;41413;52.770;6.892;2023-03-25T15:16:30;10.00;99.90
52889;DHT22;41413;52.770;6.892;2023-03-25T15:19:00;10.00;99.90
52889;DHT22;41413;52.770;6.892;2023-03-25T15:21:31;9.80;99.90
52889;DHT22;41413;52.770;6.892;2023-03-25T15:26:37;10.00;99.90
52889;DHT22;41413;52.770;6.892;2023-03-25T15:40:27;9.90;99.90
52889;DHT22;41413;52.770;6.892;2023-03-25T15:49:12;9.60;99.90
52889;DHT22;41413;52.770;6.892;2023-03-25T15:54:59;9.80;99.90
52889;DHT22;41413;52.770;6.892;2023-03-25T16:00:22;9.90;99.90
52889;DHT22;41413;52.770;6.892;2023-03-25T16:02:58;9.90;99.90
52889;DHT22;41413;52.770;6.892;2023-03-25T16:05:33;9.70;99.90
52889;DHT22;41413;52.770;6.892;2023-03-25T16:08:07;9.80;99.90
52889;DHT22;41413;52.770;6.892;2023-03-25T16:10:34;9.70;99.90
52889;DHT22;41413;52.770;6.892;2023-03-25T16:13:11;9.80;99.90
52889;DHT22;41413;52.770;6.892;2023-03-25T16:15:55;9.80;99.90
52889;DHT22;41413;52.770;6.892;2023-03-25T16:18:23;9.70;99.90
52889;DHT22;41413;52.770;6.892;2023-03-25T16:20:58;9.60;99.90
52889;DHT22;41413;52.770;6.892;2023-03-25T16:23:25;9.70;99.90
52889;DHT22;41413;52.770;6.892;2023-03-25T16:25:53;9.70;99.90
52889;DHT22;41413;52.770;6.892;2023-03-25T16:28:32;9.50;99.90
52889;DHT22;41413;52.770;6.892;2023-03-25T16:30:59;9.50;99.90
52889;DHT22;41413;52.770;6.892;2023-03-25T16:33:31;9.60;99.90
52889;DHT22;41413;52.770;6.892;2023-03-25T16:36:00;9.70;99.90
52889;DHT22;41413;52.770;6.892;2023-03-25T16:38:30;9.90;99.90
52889;DHT22;41413;52.770;6.892;2023-03-25T16:41:11;9.70;99.90
52889;DHT22;41413;52.770;6.892;2023-03-25T16:43:38;9.80;99.90
52889;DHT22;41413;52.770;6.892;2023-03-25T16:46:08;9.70;99.90
52889;DHT22;41413;52.770;6.892;2023-03-25T16:48:49;9.70;99.90
52889;DHT22;41413;52.770;6.892;2023-03-25T16:51:25;9.70;99.90
52889;DHT22;41413;52.770;6.892;2023-03-25T16:53:55;9.80;99.90
52889;DHT22;41413;52.770;6.892;2023-03-25T16:56:32;9.70;99.90
52889;DHT22;41413;52.770;6.892;2023-03-25T16:59:22;9.50;99.90
52889;DHT22;41413;52.770;6.892;2023-03-25T17:01:53;9.60;99.90
52889;DHT22;41413;52.770;6.892;2023-03-25T17:04:44;9.50;99.90
52889;DHT22;41413;52.770;6.892;2023-03-25T17:07:13;9.50;99.90
52889;DHT22;41413;52.770;6.892;2023-03-25T17:09:40;9.60;99.90
52889;DHT22;41413;52.770;6.892;2023-03-25T17:12:15;9.70;99.90
52889;DHT22;41413;52.770;6.892;2023-03-25T17:14:44;9.50;99.90
52889;DHT22;41413;52.770;6.892;2023-03-25T17:20:18;9.50;99.90
52889;DHT22;41413;52.770;6.892;2023-03-25T17:23:52;9.50;99.90
52889;DHT22;41413;52.770;6.892;2023-03-25T17:26:08;9.40;99.90
52889;DHT22;41413;52.770;6.892;2023-03-25T17:28:37;9.50;99.90
52889;DHT22;41413;52.770;6.892;2023-03-25T17:34:17;9.70;99.90
52889;DHT22;41413;52.770;6.892;2023-03-25T17:36:46;9.60;99.90
52889;DHT22;41413;52.770;6.892;2023-03-25T17:39:31;9.60;99.90
52889;DHT22;41413;52.770;6.892;2023-03-25T17:42:00;9.60;99.90
52889;DHT22;41413;52.770;6.892;2023-03-25T17:46:57;9.60;99.90
52889;DHT22;41413;52.770;6.892;2023-03-25T17:49:24;9.70;99.90
52889;DHT22;41413;52.770;6.892;2023-03-25T17:51:51;9.60;99.90
52889;DHT22;41413;52.770;6.892;2023-03-25T17:54:18;9.60;99.90
52889;DHT22;41413;52.770;6.892;2023-03-25T17:56:44;9.60;99.90
52889;DHT22;41413;52.770;6.892;2023-03-25T17:59:16;9.70;99.90
52889;DHT22;41413;52.770;6.892;2023-03-25T18:01:45;9.60;99.90
52889;DHT22;41413;52.770;6.892;2023-03-25T18:04:13;9.60;99.90
52889;DHT22;41413;52.770;6.892;2023-03-25T18:06:41;9.50;99.90
52889;DHT22;41413;52.770;6.892;2023-03-25T18:09:22;9.60;99.90
52889;DHT22;41413;52.770;6.892;2023-03-25T18:11:52;9.50;99.90
52889;DHT22;41413;52.770;6.892;2023-03-25T18:14:20;9.50;99.90
52889;DHT22;41413;52.770;6.892;2023-03-25T18:16:48;9.50;99.90
52889;DHT22;41413;52.770;6.892;2023-03-25T18:19:23;9.50;99.90
52889;DHT22;41413;52.770;6.892;2023-03-25T18:21:50;9.50;99.90
52889;DHT22;41413;52.770;6.892;2023-03-25T18:24:18;9.40;99.90
52889;DHT22;41413;52.770;6.892;2023-03-25T18:26:44;9.40;99.90
52889;DHT22;41413;52.770;6.892;2023-03-25T18:29:26;9.30;99.90
52889;DHT22;41413;52.770;6.892;2023-03-25T18:31:56;9.40;99.90
52889;DHT22;41413;52.770;6.892;2023-03-25T18:34:23;9.40;99.90
52889;DHT22;41413;52.770;6.892;2023-03-25T18:36:52;9.40;99.90
52889;DHT22;41413;52.770;6.892;2023-03-25T18:39:25;9.40;99.90
52889;DHT22;41413;52.770;6.892;2023-03-25T18:41:52;9.40;99.90
52889;DHT22;41413;52.770;6.892;2023-03-25T18:44:19;9.40;99.90
52889;DHT22;41413;52.770;6.892;2023-03-25T18:46:46;9.40;99.90
52889;DHT22;41413;52.770;6.892;2023-03-25T18:49:15;9.50;99.90
52889;DHT22;41413;52.770;6.892;2023-03-25T18:51:43;9.50;99.90
52889;DHT22;41413;52.770;6.892;2023-03-25T18:54:10;9.50;99.90
52889;DHT22;41413;52.770;6.892;2023-03-25T18:56:36;9.60;99.90
52889;DHT22;41413;52.770;6.892;2023-03-25T18:59:03;9.50;99.90
52889;DHT22;41413;52.770;6.892;2023-03-25T19:01:30;9.40;99.90